sensor_id;sensor_type;location;lat;lon;timestamp;P1;durP1;ratioP1;P2;durP2;ratioP2
32427;SDS011;18882;50.952;4.366;2023-05-28T00:01:45;11.60;;;5.13;;
32427;SDS011;18882;50.952;4.366;2023-05-28T00:04:11;18.05;;;5.45;;
32427;SDS011;18882;50.952;4.366;2023-05-28T00:06:37;17.52;;;4.90;;
32427;SDS011;18882;50.952;4.366;2023-05-28T00:09:03;17.13;;;5.10;;
32427;SDS011;18882;50.952;4.366;2023-05-28T00:11:28;11.77;;;5.05;;
32427;SDS011;18882;50.952;4.366;2023-05-28T00:13:54;15.60;;;4.90;;
32427;SDS011;18882;50.952;4.366;2023-05-28T00:16:20;16.88;;;5.72;;
32427;SDS011;18882;50.952;4.366;2023-05-28T00:18:45;16.38;;;5.82;;
32427;SDS011;18882;50.952;4.366;2023-05-28T00:21:11;12.60;;;5.38;;
32427;SDS011;18882;50.952;4.366;2023-05-28T00:23:37;19.33;;;6.05;;
32427;SDS011;18882;50.952;4.366;2023-05-28T00:26:03;15.80;;;5.80;;
32427;SDS011;18882;50.952;4.366;2023-05-28T00:28:28;13.65;;;5.90;;
32427;SDS011;18882;50.952;4.366;2023-05-28T00:30:54;14.90;;;5.40;;
32427;SDS011;18882;50.952;4.366;2023-05-28T00:33:20;13.07;;;5.07;;
32427;SDS011;18882;50.952;4.366;2023-05-28T00:35:45;12.38;;;5.50;;
32427;SDS011;18882;50.952;4.366;2023-05-28T00:38:11;11.77;;;5.43;;
32427;SDS011;18882;50.952;4.366;2023-05-28T00:40:40;15.23;;;5.10;;
32427;SDS011;18882;50.952;4.366;2023-05-28T00:43:08;17.02;;;5.68;;
32427;SDS011;18882;50.952;4.366;2023-05-28T00:45:34;16.67;;;6.18;;
32427;SDS011;18882;50.952;4.366;2023-05-28T00:48:00;20.63;;;6.05;;
32427;SDS011;18882;50.952;4.366;2023-05-28T00:50:26;21.40;;;6.93;;
32427;SDS011;18882;50.952;4.366;2023-05-28T00:52:53;13.48;;;6.20;;
32427;SDS011;18882;50.952;4.366;2023-05-28T00:55:20;18.13;;;6.75;;
32427;SDS011;18882;50.952;4.366;2023-05-28T00:57:46;25.42;;;6.97;;
32427;SDS011;18882;50.952;4.366;2023-05-28T01:00:13;13.57;;;6.60;;
32427;SDS011;18882;50.952;4.366;2023-05-28T01:02:41;21.73;;;6.63;;
32427;SDS011;18882;50.952;4.366;2023-05-28T01:05:06;14.52;;;6.93;;
32427;SDS011;18882;50.952;4.366;2023-05-28T01:07:33;17.40;;;6.70;;
32427;SDS011;18882;50.952;4.366;2023-05-28T01:09:59;18.23;;;6.45;;
32427;SDS011;18882;50.952;4.366;2023-05-28T01:12:25;23.38;;;6.65;;
32427;SDS011;18882;50.952;4.366;2023-05-28T01:14:52;19.10;;;6.60;;
32427;SDS011;18882;50.952;4.366;2023-05-28T01:17:18;17.58;;;6.82;;
32427;SDS011;18882;50.952;4.366;2023-05-28T01:19:44;17.58;;;6.97;;
32427;SDS011;18882;50.952;4.366;2023-05-28T01:22:12;16.90;;;7.13;;
32427;SDS011;18882;50.952;4.366;2023-05-28T01:24:41;23.48;;;6.95;;
32427;SDS011;18882;50.952;4.366;2023-05-28T01:27:08;17.73;;;6.75;;
32427;SDS011;18882;50.952;4.366;2023-05-28T01:29:34;19.13;;;6.78;;
32427;SDS011;18882;50.952;4.366;2023-05-28T01:32:00;18.67;;;7.10;;
32427;SDS011;18882;50.952;4.366;2023-05-28T01:34:26;19.38;;;6.57;;
32427;SDS011;18882;50.952;4.366;2023-05-28T01:36:57;22.85;;;7.25;;
32427;SDS011;18882;50.952;4.366;2023-05-28T01:39:27;20.05;;;7.20;;
32427;SDS011;18882;50.952;4.366;2023-05-28T01:41:58;17.05;;;6.20;;
32427;SDS011;18882;50.952;4.366;2023-05-28T01:44:24;22.90;;;7.00;;
32427;SDS011;18882;50.952;4.366;2023-05-28T01:46:50;20.50;;;6.47;;
32427;SDS011;18882;50.952;4.366;2023-05-28T01:49:20;19.77;;;6.72;;
32427;SDS011;18882;50.952;4.366;2023-05-28T01:51:47;22.30;;;6.95;;
32427;SDS011;18882;50.952;4.366;2023-05-28T01:54:12;17.58;;;6.63;;
32427;SDS011;18882;50.952;4.366;2023-05-28T01:56:38;20.92;;;6.82;;
32427;SDS011;18882;50.952;4.366;2023-05-28T01:59:04;26.52;;;7.35;;
32427;SDS011;18882;50.952;4.366;2023-05-28T02:01:30;15.02;;;6.53;;
32427;SDS011;18882;50.952;4.366;2023-05-28T02:03:58;18.13;;;6.78;;
32427;SDS011;18882;50.952;4.366;2023-05-28T02:06:26;18.77;;;6.80;;
32427;SDS011;18882;50.952;4.366;2023-05-28T02:08:52;17.63;;;7.40;;
32427;SDS011;18882;50.952;4.366;2023-05-28T02:11:18;16.23;;;7.20;;
32427;SDS011;18882;50.952;4.366;2023-05-28T02:13:44;14.13;;;6.47;;
32427;SDS011;18882;50.952;4.366;2023-05-28T02:16:11;19.10;;;7.82;;
32427;SDS011;18882;50.952;4.366;2023-05-28T02:18:42;18.63;;;6.88;;
32427;SDS011;18882;50.952;4.366;2023-05-28T02:21:12;19.52;;;7.30;;
32427;SDS011;18882;50.952;4.366;2023-05-28T02:23:45;18.80;;;7.10;;
32427;SDS011;18882;50.952;4.366;2023-05-28T02:26:12;19.52;;;6.95;;
32427;SDS011;18882;50.952;4.366;2023-05-28T02:28:37;19.83;;;7.00;;
32427;SDS011;18882;50.952;4.366;2023-05-28T02:31:04;21.80;;;7.60;;
32427;SDS011;18882;50.952;4.366;2023-05-28T02:33:30;19.75;;;7.03;;
32427;SDS011;18882;50.952;4.366;2023-05-28T02:35:57;15.65;;;6.85;;
32427;SDS011;18882;50.952;4.366;2023-05-28T02:38:23;17.70;;;7.43;;
32427;SDS011;18882;50.952;4.366;2023-05-28T02:40:48;16.88;;;6.75;;
32427;SDS011;18882;50.952;4.366;2023-05-28T02:43:14;25.95;;;7.30;;
32427;SDS011;18882;50.952;4.366;2023-05-28T02:45:39;21.48;;;7.28;;
32427;SDS011;18882;50.952;4.366;2023-05-28T02:48:05;16.00;;;6.95;;
32427;SDS011;18882;50.952;4.366;2023-05-28T02:50:31;24.67;;;7.68;;
32427;SDS011;18882;50.952;4.366;2023-05-28T02:52:56;12.65;;;6.28;;
32427;SDS011;18882;50.952;4.366;2023-05-28T02:55:22;15.88;;;7.35;;
32427;SDS011;18882;50.952;4.366;2023-05-28T02:57:48;17.63;;;7.80;;
32427;SDS011;18882;50.952;4.366;2023-05-28T03:00:13;15.43;;;6.90;;
32427;SDS011;18882;50.952;4.366;2023-05-28T03:02:39;17.42;;;6.85;;
32427;SDS011;18882;50.952;4.366;2023-05-28T03:05:05;18.08;;;7.20;;
32427;SDS011;18882;50.952;4.366;2023-05-28T03:07:31;17.60;;;7.57;;
32427;SDS011;18882;50.952;4.366;2023-05-28T03:09:57;19.10;;;8.20;;
32427;SDS011;18882;50.952;4.366;2023-05-28T03:12:23;22.30;;;7.88;;
32427;SDS011;18882;50.952;4.366;2023-05-28T03:14:49;16.90;;;7.15;;
32427;SDS011;18882;50.952;4.366;2023-05-28T03:17:15;15.95;;;7.05;;
32427;SDS011;18882;50.952;4.366;2023-05-28T03:19:40;17.85;;;7.28;;
32427;SDS011;18882;50.952;4.366;2023-05-28T03:22:06;15.77;;;7.95;;
32427;SDS011;18882;50.952;4.366;2023-05-28T03:24:32;19.00;;;7.78;;
32427;SDS011;18882;50.952;4.366;2023-05-28T03:27:00;21.17;;;7.20;;
32427;SDS011;18882;50.952;4.366;2023-05-28T03:29:27;24.33;;;8.20;;
32427;SDS011;18882;50.952;4.366;2023-05-28T03:31:52;24.10;;;8.05;;
32427;SDS011;18882;50.952;4.366;2023-05-28T03:34:18;16.35;;;7.50;;
32427;SDS011;18882;50.952;4.366;2023-05-28T03:36:45;18.73;;;7.35;;
32427;SDS011;18882;50.952;4.366;2023-05-28T03:39:11;24.80;;;8.23;;
32427;SDS011;18882;50.952;4.366;2023-05-28T03:41:37;18.20;;;6.57;;
32427;SDS011;18882;50.952;4.366;2023-05-28T03:44:03;24.60;;;8.48;;
32427;SDS011;18882;50.952;4.366;2023-05-28T03:46:29;18.40;;;7.43;;
32427;SDS011;18882;50.952;4.366;2023-05-28T03:48:55;17.95;;;8.15;;
32427;SDS011;18882;50.952;4.366;2023-05-28T03:51:21;22.20;;;6.93;;
32427;SDS011;18882;50.952;4.366;2023-05-28T03:53:48;28.60;;;8.05;;
32427;SDS011;18882;50.952;4.366;2023-05-28T03:56:14;20.80;;;7.65;;
32427;SDS011;18882;50.952;4.366;2023-05-28T03:58:40;18.77;;;8.20;;
32427;SDS011;18882;50.952;4.366;2023-05-28T04:01:06;21.02;;;8.80;;
32427;SDS011;18882;50.952;4.366;2023-05-28T04:03:32;18.45;;;7.82;;
32427;SDS011;18882;50.952;4.366;2023-05-28T04:05:58;26.25;;;7.53;;
32427;SDS011;18882;50.952;4.366;2023-05-28T04:08:25;20.10;;;8.07;;
32427;SDS011;18882;50.952;4.366;2023-05-28T04:10:51;23.83;;;8.68;;
32427;SDS011;18882;50.952;4.366;2023-05-28T04:13:17;20.95;;;7.85;;
32427;SDS011;18882;50.952;4.366;2023-05-28T04:15:42;18.17;;;8.18;;
32427;SDS011;18882;50.952;4.366;2023-05-28T04:18:08;16.63;;;7.78;;
32427;SDS011;18882;50.952;4.366;2023-05-28T04:20:34;19.48;;;7.85;;
32427;SDS011;18882;50.952;4.366;2023-05-28T04:23:01;25.25;;;7.60;;
32427;SDS011;18882;50.952;4.366;2023-05-28T04:25:27;23.55;;;8.85;;
32427;SDS011;18882;50.952;4.366;2023-05-28T04:27:53;23.88;;;8.13;;
32427;SDS011;18882;50.952;4.366;2023-05-28T04:30:19;19.25;;;7.80;;
32427;SDS011;18882;50.952;4.366;2023-05-28T04:32:48;24.08;;;8.25;;
32427;SDS011;18882;50.952;4.366;2023-05-28T04:35:16;21.65;;;8.82;;
32427;SDS011;18882;50.952;4.366;2023-05-28T04:37:42;15.85;;;8.45;;
32427;SDS011;18882;50.952;4.366;2023-05-28T04:40:09;21.92;;;8.98;;
32427;SDS011;18882;50.952;4.366;2023-05-28T04:42:39;20.40;;;8.77;;
32427;SDS011;18882;50.952;4.366;2023-05-28T04:45:08;21.38;;;7.88;;
32427;SDS011;18882;50.952;4.366;2023-05-28T04:47:35;22.00;;;9.43;;
32427;SDS011;18882;50.952;4.366;2023-05-28T04:50:01;24.98;;;8.65;;
32427;SDS011;18882;50.952;4.366;2023-05-28T04:52:31;28.33;;;9.20;;
32427;SDS011;18882;50.952;4.366;2023-05-28T04:54:58;23.38;;;9.05;;
32427;SDS011;18882;50.952;4.366;2023-05-28T04:57:24;21.85;;;9.20;;
32427;SDS011;18882;50.952;4.366;2023-05-28T04:59:50;21.40;;;8.48;;
32427;SDS011;18882;50.952;4.366;2023-05-28T05:02:16;23.08;;;9.05;;
32427;SDS011;18882;50.952;4.366;2023-05-28T05:04:43;25.15;;;8.95;;
32427;SDS011;18882;50.952;4.366;2023-05-28T05:07:10;29.33;;;9.57;;
32427;SDS011;18882;50.952;4.366;2023-05-28T05:09:39;25.27;;;8.50;;
32427;SDS011;18882;50.952;4.366;2023-05-28T05:12:05;27.40;;;9.10;;
32427;SDS011;18882;50.952;4.366;2023-05-28T05:14:32;27.08;;;8.73;;
32427;SDS011;18882;50.952;4.366;2023-05-28T05:16:58;30.25;;;9.70;;
32427;SDS011;18882;50.952;4.366;2023-05-28T05:19:24;24.00;;;8.55;;
32427;SDS011;18882;50.952;4.366;2023-05-28T05:21:50;20.77;;;9.40;;
32427;SDS011;18882;50.952;4.366;2023-05-28T05:24:16;20.27;;;8.88;;
32427;SDS011;18882;50.952;4.366;2023-05-28T05:26:42;19.73;;;9.05;;
32427;SDS011;18882;50.952;4.366;2023-05-28T05:29:13;23.88;;;8.85;;
32427;SDS011;18882;50.952;4.366;2023-05-28T05:32:02;24.08;;;8.68;;
32427;SDS011;18882;50.952;4.366;2023-05-28T05:34:49;25.08;;;8.80;;
32427;SDS011;18882;50.952;4.366;2023-05-28T05:37:14;24.30;;;8.70;;
32427;SDS011;18882;50.952;4.366;2023-05-28T05:39:40;18.52;;;8.18;;
32427;SDS011;18882;50.952;4.366;2023-05-28T05:42:06;19.48;;;7.78;;
32427;SDS011;18882;50.952;4.366;2023-05-28T05:44:31;21.15;;;9.10;;
32427;SDS011;18882;50.952;4.366;2023-05-28T05:46:57;25.42;;;9.48;;
32427;SDS011;18882;50.952;4.366;2023-05-28T05:49:23;16.15;;;7.95;;
32427;SDS011;18882;50.952;4.366;2023-05-28T05:51:48;17.60;;;8.77;;
32427;SDS011;18882;50.952;4.366;2023-05-28T05:54:14;24.98;;;8.30;;
32427;SDS011;18882;50.952;4.366;2023-05-28T05:56:42;24.60;;;9.07;;
32427;SDS011;18882;50.952;4.366;2023-05-28T05:59:08;24.77;;;8.65;;
32427;SDS011;18882;50.952;4.366;2023-05-28T06:01:34;22.27;;;8.48;;
32427;SDS011;18882;50.952;4.366;2023-05-28T06:04:00;19.08;;;7.57;;
32427;SDS011;18882;50.952;4.366;2023-05-28T06:06:26;15.93;;;7.32;;
32427;SDS011;18882;50.952;4.366;2023-05-28T06:08:52;18.35;;;7.85;;
32427;SDS011;18882;50.952;4.366;2023-05-28T06:11:20;21.35;;;7.50;;
32427;SDS011;18882;50.952;4.366;2023-05-28T06:13:47;25.10;;;8.10;;
32427;SDS011;18882;50.952;4.366;2023-05-28T06:16:13;21.58;;;8.05;;
32427;SDS011;18882;50.952;4.366;2023-05-28T06:18:39;18.05;;;7.38;;
32427;SDS011;18882;50.952;4.366;2023-05-28T06:21:05;19.00;;;7.78;;
32427;SDS011;18882;50.952;4.366;2023-05-28T06:23:32;22.80;;;6.95;;
32427;SDS011;18882;50.952;4.366;2023-05-28T06:25:58;24.20;;;7.97;;
32427;SDS011;18882;50.952;4.366;2023-05-28T06:28:27;19.80;;;8.63;;
32427;SDS011;18882;50.952;4.366;2023-05-28T06:30:53;20.80;;;8.50;;
32427;SDS011;18882;50.952;4.366;2023-05-28T06:33:18;20.42;;;7.65;;
32427;SDS011;18882;50.952;4.366;2023-05-28T06:35:44;18.77;;;8.07;;
32427;SDS011;18882;50.952;4.366;2023-05-28T06:38:10;17.08;;;7.57;;
32427;SDS011;18882;50.952;4.366;2023-05-28T06:40:36;14.52;;;7.78;;
32427;SDS011;18882;50.952;4.366;2023-05-28T06:43:01;21.63;;;8.18;;
32427;SDS011;18882;50.952;4.366;2023-05-28T06:45:28;22.20;;;7.05;;
32427;SDS011;18882;50.952;4.366;2023-05-28T06:47:53;18.83;;;7.05;;
32427;SDS011;18882;50.952;4.366;2023-05-28T06:50:19;23.77;;;6.95;;
32427;SDS011;18882;50.952;4.366;2023-05-28T06:52:45;16.15;;;6.45;;
32427;SDS011;18882;50.952;4.366;2023-05-28T06:55:11;15.35;;;6.30;;
32427;SDS011;18882;50.952;4.366;2023-05-28T06:57:37;21.98;;;6.88;;
32427;SDS011;18882;50.952;4.366;2023-05-28T07:00:06;17.60;;;6.47;;
32427;SDS011;18882;50.952;4.366;2023-05-28T07:02:35;15.45;;;6.05;;
32427;SDS011;18882;50.952;4.366;2023-05-28T07:05:01;14.85;;;6.20;;
32427;SDS011;18882;50.952;4.366;2023-05-28T07:07:29;18.83;;;6.28;;
32427;SDS011;18882;50.952;4.366;2023-05-28T07:09:56;12.20;;;5.82;;
32427;SDS011;18882;50.952;4.366;2023-05-28T07:12:21;18.10;;;6.82;;
32427;SDS011;18882;50.952;4.366;2023-05-28T07:14:47;13.48;;;6.40;;
32427;SDS011;18882;50.952;4.366;2023-05-28T07:17:13;15.32;;;7.07;;
32427;SDS011;18882;50.952;4.366;2023-05-28T07:19:39;19.00;;;7.07;;
32427;SDS011;18882;50.952;4.366;2023-05-28T07:22:04;15.80;;;7.68;;
32427;SDS011;18882;50.952;4.366;2023-05-28T07:24:30;14.93;;;6.80;;
32427;SDS011;18882;50.952;4.366;2023-05-28T07:26:56;17.90;;;6.47;;
32427;SDS011;18882;50.952;4.366;2023-05-28T07:29:22;15.32;;;6.43;;
32427;SDS011;18882;50.952;4.366;2023-05-28T07:31:47;15.90;;;6.63;;
32427;SDS011;18882;50.952;4.366;2023-05-28T07:34:13;15.90;;;6.25;;
32427;SDS011;18882;50.952;4.366;2023-05-28T07:36:39;20.42;;;6.47;;
32427;SDS011;18882;50.952;4.366;2023-05-28T07:39:04;15.00;;;6.03;;
32427;SDS011;18882;50.952;4.366;2023-05-28T07:41:30;15.52;;;5.97;;
32427;SDS011;18882;50.952;4.366;2023-05-28T07:43:56;11.52;;;5.90;;
32427;SDS011;18882;50.952;4.366;2023-05-28T07:46:21;13.45;;;5.28;;
32427;SDS011;18882;50.952;4.366;2023-05-28T07:48:48;15.15;;;4.75;;
32427;SDS011;18882;50.952;4.366;2023-05-28T07:51:15;12.20;;;4.72;;
32427;SDS011;18882;50.952;4.366;2023-05-28T07:53:42;14.60;;;5.88;;
32427;SDS011;18882;50.952;4.366;2023-05-28T07:56:08;13.32;;;5.68;;
32427;SDS011;18882;50.952;4.366;2023-05-28T07:58:34;14.88;;;5.57;;
32427;SDS011;18882;50.952;4.366;2023-05-28T08:01:00;12.18;;;4.90;;
32427;SDS011;18882;50.952;4.366;2023-05-28T08:03:26;10.73;;;4.35;;
32427;SDS011;18882;50.952;4.366;2023-05-28T08:05:53;10.45;;;4.50;;
32427;SDS011;18882;50.952;4.366;2023-05-28T08:08:19;12.02;;;4.47;;
32427;SDS011;18882;50.952;4.366;2023-05-28T08:10:45;11.98;;;5.63;;
32427;SDS011;18882;50.952;4.366;2023-05-28T08:13:10;14.27;;;4.57;;
32427;SDS011;18882;50.952;4.366;2023-05-28T08:15:36;8.50;;;4.25;;
32427;SDS011;18882;50.952;4.366;2023-05-28T08:18:02;9.15;;;4.10;;
32427;SDS011;18882;50.952;4.366;2023-05-28T08:20:28;9.30;;;4.00;;
32427;SDS011;18882;50.952;4.366;2023-05-28T08:22:54;9.98;;;3.78;;
32427;SDS011;18882;50.952;4.366;2023-05-28T08:25:20;13.25;;;4.57;;
32427;SDS011;18882;50.952;4.366;2023-05-28T08:27:46;8.85;;;3.70;;
32427;SDS011;18882;50.952;4.366;2023-05-28T08:30:11;8.25;;;3.67;;
32427;SDS011;18882;50.952;4.366;2023-05-28T08:32:37;11.80;;;4.03;;
32427;SDS011;18882;50.952;4.366;2023-05-28T08:35:03;15.82;;;3.97;;
32427;SDS011;18882;50.952;4.366;2023-05-28T08:37:29;12.18;;;3.83;;
32427;SDS011;18882;50.952;4.366;2023-05-28T08:39:55;11.05;;;3.38;;
32427;SDS011;18882;50.952;4.366;2023-05-28T08:42:20;9.50;;;3.22;;
32427;SDS011;18882;50.952;4.366;2023-05-28T08:44:46;8.82;;;4.10;;
32427;SDS011;18882;50.952;4.366;2023-05-28T08:47:12;8.13;;;3.33;;
32427;SDS011;18882;50.952;4.366;2023-05-28T08:49:44;10.48;;;3.17;;
32427;SDS011;18882;50.952;4.366;2023-05-28T08:52:15;8.73;;;4.05;;
32427;SDS011;18882;50.952;4.366;2023-05-28T08:54:43;13.25;;;4.05;;
32427;SDS011;18882;50.952;4.366;2023-05-28T08:57:09;10.40;;;3.72;;
32427;SDS011;18882;50.952;4.366;2023-05-28T08:59:36;8.88;;;3.65;;
32427;SDS011;18882;50.952;4.366;2023-05-28T09:02:05;7.72;;;3.45;;
32427;SDS011;18882;50.952;4.366;2023-05-28T09:04:32;13.35;;;3.92;;
32427;SDS011;18882;50.952;4.366;2023-05-28T09:06:58;6.93;;;3.20;;
32427;SDS011;18882;50.952;4.366;2023-05-28T09:09:24;8.07;;;3.58;;
32427;SDS011;18882;50.952;4.366;2023-05-28T09:11:51;13.40;;;4.05;;
32427;SDS011;18882;50.952;4.366;2023-05-28T09:14:30;9.82;;;3.58;;
32427;SDS011;18882;50.952;4.366;2023-05-28T09:17:06;8.32;;;3.53;;
32427;SDS011;18882;50.952;4.366;2023-05-28T09:19:35;11.07;;;3.75;;
32427;SDS011;18882;50.952;4.366;2023-05-28T09:22:01;16.48;;;3.38;;
32427;SDS011;18882;50.952;4.366;2023-05-28T09:24:29;8.85;;;3.35;;
32427;SDS011;18882;50.952;4.366;2023-05-28T09:26:58;13.82;;;3.63;;
32427;SDS011;18882;50.952;4.366;2023-05-28T09:29:26;15.23;;;4.13;;
32427;SDS011;18882;50.952;4.366;2023-05-28T09:31:55;9.75;;;3.83;;
32427;SDS011;18882;50.952;4.366;2023-05-28T09:34:29;8.40;;;3.78;;
32427;SDS011;18882;50.952;4.366;2023-05-28T09:36:59;6.82;;;3.60;;
32427;SDS011;18882;50.952;4.366;2023-05-28T09:39:26;12.52;;;4.18;;
32427;SDS011;18882;50.952;4.366;2023-05-28T09:41:59;18.13;;;4.53;;
32427;SDS011;18882;50.952;4.366;2023-05-28T09:44:29;8.98;;;3.90;;
32427;SDS011;18882;50.952;4.366;2023-05-28T09:46:58;10.75;;;4.03;;
32427;SDS011;18882;50.952;4.366;2023-05-28T09:49:27;11.52;;;4.43;;
32427;SDS011;18882;50.952;4.366;2023-05-28T09:51:54;8.23;;;3.55;;
32427;SDS011;18882;50.952;4.366;2023-05-28T09:54:27;8.73;;;3.60;;
32427;SDS011;18882;50.952;4.366;2023-05-28T09:56:57;10.23;;;3.28;;
32427;SDS011;18882;50.952;4.366;2023-05-28T09:59:27;7.07;;;3.03;;
32427;SDS011;18882;50.952;4.366;2023-05-28T10:02:58;7.00;;;3.22;;
32427;SDS011;18882;50.952;4.366;2023-05-28T10:04:57;12.95;;;3.15;;
32427;SDS011;18882;50.952;4.366;2023-05-28T10:07:29;8.07;;;3.60;;
32427;SDS011;18882;50.952;4.366;2023-05-28T10:09:55;10.35;;;3.80;;
32427;SDS011;18882;50.952;4.366;2023-05-28T10:12:27;10.18;;;3.10;;
32427;SDS011;18882;50.952;4.366;2023-05-28T10:15:00;12.13;;;3.58;;
32427;SDS011;18882;50.952;4.366;2023-05-28T10:18:05;7.35;;;3.78;;
32427;SDS011;18882;50.952;4.366;2023-05-28T10:21:23;6.82;;;3.17;;
32427;SDS011;18882;50.952;4.366;2023-05-28T10:23:52;9.07;;;3.08;;
32427;SDS011;18882;50.952;4.366;2023-05-28T10:26:21;9.70;;;3.60;;
32427;SDS011;18882;50.952;4.366;2023-05-28T10:28:57;11.43;;;3.22;;
32427;SDS011;18882;50.952;4.366;2023-05-28T10:34:47;6.00;;;2.80;;
32427;SDS011;18882;50.952;4.366;2023-05-28T10:37:31;8.27;;;3.20;;
32427;SDS011;18882;50.952;4.366;2023-05-28T10:39:57;7.13;;;3.10;;
32427;SDS011;18882;50.952;4.366;2023-05-28T10:42:24;4.88;;;2.80;;
32427;SDS011;18882;50.952;4.366;2023-05-28T10:47:31;10.40;;;3.08;;
32427;SDS011;18882;50.952;4.366;2023-05-28T10:52:38;9.50;;;3.10;;
32427;SDS011;18882;50.952;4.366;2023-05-28T10:55:05;6.30;;;3.30;;
32427;SDS011;18882;50.952;4.366;2023-05-28T10:57:45;9.73;;;3.70;;
32427;SDS011;18882;50.952;4.366;2023-05-28T11:00:12;11.55;;;3.08;;
32427;SDS011;18882;50.952;4.366;2023-05-28T11:02:52;6.90;;;3.35;;
32427;SDS011;18882;50.952;4.366;2023-05-28T11:05:23;9.05;;;3.38;;
32427;SDS011;18882;50.952;4.366;2023-05-28T11:07:55;6.00;;;2.97;;
32427;SDS011;18882;50.952;4.366;2023-05-28T11:10:22;7.32;;;3.08;;
32427;SDS011;18882;50.952;4.366;2023-05-28T11:12:49;5.32;;;2.88;;
32427;SDS011;18882;50.952;4.366;2023-05-28T11:15:16;7.82;;;2.88;;
32427;SDS011;18882;50.952;4.366;2023-05-28T11:17:42;6.28;;;2.95;;
32427;SDS011;18882;50.952;4.366;2023-05-28T11:22:51;6.50;;;3.08;;
32427;SDS011;18882;50.952;4.366;2023-05-28T11:25:29;8.70;;;2.65;;
32427;SDS011;18882;50.952;4.366;2023-05-28T11:27:55;9.43;;;3.30;;
32427;SDS011;18882;50.952;4.366;2023-05-28T11:30:28;11.85;;;3.33;;
32427;SDS011;18882;50.952;4.366;2023-05-28T11:32:54;4.95;;;2.40;;
32427;SDS011;18882;50.952;4.366;2023-05-28T11:35:20;6.35;;;2.90;;
32427;SDS011;18882;50.952;4.366;2023-05-28T11:37:45;7.38;;;2.83;;
32427;SDS011;18882;50.952;4.366;2023-05-28T11:40:12;7.95;;;3.33;;
32427;SDS011;18882;50.952;4.366;2023-05-28T11:42:40;5.28;;;3.28;;
32427;SDS011;18882;50.952;4.366;2023-05-28T11:45:12;8.75;;;3.95;;
32427;SDS011;18882;50.952;4.366;2023-05-28T11:47:41;7.25;;;3.15;;
32427;SDS011;18882;50.952;4.366;2023-05-28T11:50:12;6.65;;;3.40;;
32427;SDS011;18882;50.952;4.366;2023-05-28T11:52:39;5.78;;;2.40;;
32427;SDS011;18882;50.952;4.366;2023-05-28T11:55:08;5.80;;;2.83;;
32427;SDS011;18882;50.952;4.366;2023-05-28T11:57:38;6.75;;;3.33;;
32427;SDS011;18882;50.952;4.366;2023-05-28T12:02:46;10.27;;;4.00;;
32427;SDS011;18882;50.952;4.366;2023-05-28T12:05:14;4.93;;;2.78;;
32427;SDS011;18882;50.952;4.366;2023-05-28T12:07:52;5.95;;;3.03;;
32427;SDS011;18882;50.952;4.366;2023-05-28T12:10:19;9.07;;;3.33;;
32427;SDS011;18882;50.952;4.366;2023-05-28T12:12:49;8.88;;;3.33;;
32427;SDS011;18882;50.952;4.366;2023-05-28T12:15:16;7.95;;;3.20;;
32427;SDS011;18882;50.952;4.366;2023-05-28T12:17:43;6.40;;;2.90;;
32427;SDS011;18882;50.952;4.366;2023-05-28T12:22:38;6.95;;;2.83;;
32427;SDS011;18882;50.952;4.366;2023-05-28T12:25:04;6.60;;;2.38;;
32427;SDS011;18882;50.952;4.366;2023-05-28T12:27:31;6.78;;;3.03;;
32427;SDS011;18882;50.952;4.366;2023-05-28T12:29:57;7.85;;;3.13;;
32427;SDS011;18882;50.952;4.366;2023-05-28T12:32:23;9.52;;;3.25;;
32427;SDS011;18882;50.952;4.366;2023-05-28T12:34:49;5.32;;;2.92;;
32427;SDS011;18882;50.952;4.366;2023-05-28T12:37:17;7.47;;;3.53;;
32427;SDS011;18882;50.952;4.366;2023-05-28T12:39:43;7.65;;;3.33;;
32427;SDS011;18882;50.952;4.366;2023-05-28T12:42:09;10.02;;;3.20;;
32427;SDS011;18882;50.952;4.366;2023-05-28T12:44:35;9.82;;;3.08;;
32427;SDS011;18882;50.952;4.366;2023-05-28T12:47:01;9.35;;;3.35;;
32427;SDS011;18882;50.952;4.366;2023-05-28T12:49:26;8.80;;;3.58;;
32427;SDS011;18882;50.952;4.366;2023-05-28T12:51:52;8.00;;;3.00;;
32427;SDS011;18882;50.952;4.366;2023-05-28T12:54:17;4.55;;;2.75;;
32427;SDS011;18882;50.952;4.366;2023-05-28T12:56:43;3.92;;;2.83;;
32427;SDS011;18882;50.952;4.366;2023-05-28T12:59:09;11.32;;;3.03;;
32427;SDS011;18882;50.952;4.366;2023-05-28T13:01:45;4.55;;;2.50;;
32427;SDS011;18882;50.952;4.366;2023-05-28T13:04:10;10.25;;;3.15;;
32427;SDS011;18882;50.952;4.366;2023-05-28T13:06:36;6.28;;;2.92;;
32427;SDS011;18882;50.952;4.366;2023-05-28T13:09:02;7.95;;;2.75;;
32427;SDS011;18882;50.952;4.366;2023-05-28T13:11:28;4.88;;;2.85;;
32427;SDS011;18882;50.952;4.366;2023-05-28T13:13:54;5.68;;;2.65;;
32427;SDS011;18882;50.952;4.366;2023-05-28T13:16:20;9.50;;;3.17;;
32427;SDS011;18882;50.952;4.366;2023-05-28T13:18:45;5.07;;;2.85;;
32427;SDS011;18882;50.952;4.366;2023-05-28T13:21:12;11.27;;;3.58;;
32427;SDS011;18882;50.952;4.366;2023-05-28T13:23:38;6.72;;;2.80;;
32427;SDS011;18882;50.952;4.366;2023-05-28T13:26:03;4.07;;;2.70;;
32427;SDS011;18882;50.952;4.366;2023-05-28T13:28:29;6.40;;;3.20;;
32427;SDS011;18882;50.952;4.366;2023-05-28T13:30:56;5.10;;;2.13;;
32427;SDS011;18882;50.952;4.366;2023-05-28T13:33:22;9.10;;;3.55;;
32427;SDS011;18882;50.952;4.366;2023-05-28T13:35:47;9.40;;;3.15;;
32427;SDS011;18882;50.952;4.366;2023-05-28T13:38:13;9.23;;;3.13;;
32427;SDS011;18882;50.952;4.366;2023-05-28T13:40:39;6.15;;;3.03;;
32427;SDS011;18882;50.952;4.366;2023-05-28T13:43:05;10.43;;;3.60;;
32427;SDS011;18882;50.952;4.366;2023-05-28T13:45:32;7.95;;;2.78;;
32427;SDS011;18882;50.952;4.366;2023-05-28T13:47:58;7.90;;;3.03;;
32427;SDS011;18882;50.952;4.366;2023-05-28T13:50:24;5.38;;;2.25;;
32427;SDS011;18882;50.952;4.366;2023-05-28T13:52:50;6.43;;;2.65;;
32427;SDS011;18882;50.952;4.366;2023-05-28T13:55:16;8.98;;;2.80;;
32427;SDS011;18882;50.952;4.366;2023-05-28T13:57:41;5.75;;;2.63;;
32427;SDS011;18882;50.952;4.366;2023-05-28T14:00:07;5.28;;;2.55;;
32427;SDS011;18882;50.952;4.366;2023-05-28T14:02:35;3.67;;;2.75;;
32427;SDS011;18882;50.952;4.366;2023-05-28T14:05:01;6.28;;;2.78;;
32427;SDS011;18882;50.952;4.366;2023-05-28T14:07:26;9.90;;;2.70;;
32427;SDS011;18882;50.952;4.366;2023-05-28T14:09:52;5.22;;;2.78;;
32427;SDS011;18882;50.952;4.366;2023-05-28T14:12:18;6.72;;;3.25;;
32427;SDS011;18882;50.952;4.366;2023-05-28T14:14:44;7.55;;;2.97;;
32427;SDS011;18882;50.952;4.366;2023-05-28T14:17:09;9.32;;;2.67;;
32427;SDS011;18882;50.952;4.366;2023-05-28T14:19:35;5.82;;;2.58;;
32427;SDS011;18882;50.952;4.366;2023-05-28T14:22:01;10.73;;;2.80;;
32427;SDS011;18882;50.952;4.366;2023-05-28T14:24:26;5.25;;;2.65;;
32427;SDS011;18882;50.952;4.366;2023-05-28T14:26:52;5.47;;;2.63;;
32427;SDS011;18882;50.952;4.366;2023-05-28T14:29:17;5.65;;;2.60;;
32427;SDS011;18882;50.952;4.366;2023-05-28T14:31:43;3.33;;;2.20;;
32427;SDS011;18882;50.952;4.366;2023-05-28T14:34:09;6.38;;;2.70;;
32427;SDS011;18882;50.952;4.366;2023-05-28T14:36:35;8.52;;;2.55;;
32427;SDS011;18882;50.952;4.366;2023-05-28T14:39:02;5.90;;;3.00;;
32427;SDS011;18882;50.952;4.366;2023-05-28T14:41:27;8.48;;;2.28;;
32427;SDS011;18882;50.952;4.366;2023-05-28T14:43:53;7.22;;;2.50;;
32427;SDS011;18882;50.952;4.366;2023-05-28T14:46:19;5.72;;;2.60;;
32427;SDS011;18882;50.952;4.366;2023-05-28T14:48:45;6.03;;;2.67;;
32427;SDS011;18882;50.952;4.366;2023-05-28T14:51:10;6.00;;;2.47;;
32427;SDS011;18882;50.952;4.366;2023-05-28T14:53:36;3.53;;;2.25;;
32427;SDS011;18882;50.952;4.366;2023-05-28T14:56:02;4.03;;;2.50;;